Time;durP1;ratioP1;P1;durP2;ratioP2;P2;SDS_P1;SDS_P2;PMS_P1;PMS_P2;Temp;Humidity;BMP_temperature;BMP_pressure;BME280_temperature;BME280_humidity;BME280_pressure;Samples;Min_cycle;Max_cycle;Signal;HPM_P1;HPM_P2
2023/04/05 00:01:41;;;;;;;1.48;1.00;;;3.90;96.00;;;;;;4992715;28;20049;-77
2023/04/05 00:04:07;;;;;;;4.88;1.50;;;3.90;95.70;;;;;;4966190;28;20153;-77
2023/04/05 00:06:33;;;;;;;3.90;1.50;;;3.90;95.70;;;;;;4992614;28;20498;-77
2023/04/05 00:09:02;;;;;;;1.25;0.88;;;3.90;95.70;;;;;;4983473;28;20478;-77
2023/04/05 00:11:31;;;;;;;1.95;1.30;;;3.80;95.70;;;;;;4993306;28;20113;-77
2023/04/05 00:13:59;;;;;;;3.58;1.00;;;3.80;95.60;;;;;;4993876;28;20661;-77
2023/04/05 00:16:27;;;;;;;3.50;1.13;;;3.90;95.70;;;;;;4992524;28;20439;-77
2023/04/05 00:18:55;;;;;;;3.60;1.65;;;3.80;95.90;;;;;;4993610;28;20044;-77
2023/04/05 00:21:23;;;;;;;2.95;1.23;;;3.80;95.90;;;;;;4975022;28;20066;-77
2023/04/05 00:23:54;;;;;;;1.80;1.02;;;3.70;96.60;;;;;;4984100;28;20030;-76
2023/04/05 00:26:20;;;;;;;3.67;1.60;;;3.60;97.60;;;;;;4992901;28;20041;-77
2023/04/05 00:28:47;;;;;;;5.57;1.42;;;3.50;97.50;;;;;;4990906;28;20074;-77
2023/04/05 00:31:14;;;;;;;7.07;1.60;;;3.50;97.50;;;;;;4992428;28;20391;-76
2023/04/05 00:33:39;;;;;;;2.45;1.30;;;3.40;97.60;;;;;;4993495;28;20026;-77
2023/04/05 00:36:19;;;;;;;3.53;1.60;;;3.40;97.90;;;;;;4988472;28;20552;-77
2023/04/05 00:38:47;;;;;;;2.83;0.80;;;3.30;98.90;;;;;;4993218;28;20037;-76
2023/04/05 00:41:13;;;;;;;2.42;1.23;;;3.20;99.20;;;;;;4974854;28;20113;-77
2023/04/05 00:43:40;;;;;;;1.70;1.40;;;3.00;99.50;;;;;;4992388;28;20667;-76
2023/04/05 00:46:06;;;;;;;4.30;1.48;;;3.00;99.80;;;;;;4992365;28;20414;-76
2023/04/05 00:48:34;;;;;;;1.05;0.85;;;3.00;99.90;;;;;;4993365;28;20034;-77
2023/04/05 00:51:00;;;;;;;1.63;1.20;;;2.90;99.90;;;;;;4974740;28;20030;-77
2023/04/05 00:53:26;;;;;;;1.98;1.33;;;2.80;99.90;;;;;;4983566;28;20030;-76
2023/04/05 00:55:53;;;;;;;6.95;1.75;;;2.80;99.90;;;;;;4974385;28;20038;-76
2023/04/05 00:58:21;;;;;;;4.57;1.75;;;2.80;99.90;;;;;;4993136;28;20023;-76
2023/04/05 01:01:15;;;;;;;4.07;1.10;;;2.90;99.90;;;;;;4992342;28;20061;-76
2023/04/05 01:03:48;;;;;;;1.45;1.02;;;2.90;99.90;;;;;;4984287;28;20117;-77
2023/04/05 01:06:35;;;;;;;7.20;2.35;;;2.60;99.90;;;;;;4987875;28;20077;-77
2023/04/05 01:09:19;;;;;;;2.78;1.45;;;2.50;99.90;;;;;;4981471;28;20029;-76
2023/04/05 01:11:47;;;;;;;3.75;1.60;;;2.50;99.90;;;;;;4982522;28;20038;-76
2023/04/05 01:14:13;;;;;;;3.45;1.27;;;2.50;99.90;;;;;;4980262;28;20414;-77
2023/04/05 01:16:39;;;;;;;12.63;1.85;;;2.40;99.90;;;;;;4991584;28;20143;-77
2023/04/05 01:19:08;;;;;;;2.92;1.40;;;2.20;99.90;;;;;;4992817;28;20478;-76
2023/04/05 01:21:36;;;;;;;1.52;1.17;;;2.30;99.90;;;;;;4991667;28;20031;-76
2023/04/05 01:24:32;;;;;;;3.13;1.33;;;2.30;99.90;;;;;;4992430;28;20042;-76
2023/04/05 01:27:13;;;;;;;4.88;2.03;;;2.30;99.90;;;;;;4975547;28;20366;-76
2023/04/05 01:29:55;;;;;;;2.05;1.33;;;2.40;99.90;;;;;;4992691;28;20106;-76
2023/04/05 01:32:50;;;;;;;3.58;1.80;;;2.40;99.90;;;;;;4990979;28;20173;-76
2023/04/05 01:35:26;;;;;;;4.03;1.80;;;2.30;99.90;;;;;;4972481;28;20515;-76
2023/04/05 01:38:01;;;;;;;3.00;1.77;;;2.30;99.90;;;;;;4984652;28;20030;-76
2023/04/05 01:40:30;;;;;;;2.10;1.48;;;2.10;99.90;;;;;;4990752;28;20113;-77
2023/04/05 01:42:55;;;;;;;3.42;1.00;;;1.90;99.90;;;;;;4952855;28;20034;-77
2023/04/05 01:45:21;;;;;;;1.52;1.10;;;1.90;99.90;;;;;;4991836;28;20045;-77
2023/04/05 01:47:47;;;;;;;6.65;1.85;;;1.80;99.90;;;;;;4998143;28;20022;-77
2023/04/05 01:50:13;;;;;;;2.85;1.50;;;1.70;99.90;;;;;;4992640;28;20045;-76
2023/04/05 01:52:38;;;;;;;3.38;1.40;;;1.70;99.90;;;;;;4990506;28;20061;-77
2023/04/05 01:55:06;;;;;;;2.67;1.38;;;1.70;99.90;;;;;;4990162;28;20137;-76
2023/04/05 01:57:31;;;;;;;0.75;0.63;;;1.70;99.90;;;;;;4990951;28;20032;-76
2023/04/05 01:59:57;;;;;;;4.30;2.17;;;1.70;99.90;;;;;;4992452;28;20121;-77
2023/04/05 02:02:23;;;;;;;5.75;2.20;;;1.70;99.90;;;;;;4991098;28;20034;-77
2023/04/05 02:04:48;;;;;;;1.85;1.27;;;1.80;99.90;;;;;;4991957;28;20026;-76
2023/04/05 02:07:14;;;;;;;3.78;1.38;;;1.80;99.90;;;;;;4990958;28;20038;-76
2023/04/05 02:09:40;;;;;;;2.92;1.25;;;1.80;99.90;;;;;;4992165;28;20049;-77
2023/04/05 02:12:05;;;;;;;2.55;1.65;;;1.70;99.90;;;;;;4990858;28;20541;-77
2023/04/05 02:14:32;;;;;;;5.65;1.10;;;1.60;99.90;;;;;;4991824;28;20022;-76
2023/04/05 02:17:01;;;;;;;2.95;1.60;;;1.60;99.90;;;;;;4990955;28;20080;-76
2023/04/05 02:19:28;;;;;;;1.50;1.40;;;1.50;99.90;;;;;;4991809;28;20030;-76
2023/04/05 02:21:54;;;;;;;1.85;1.30;;;1.60;99.90;;;;;;5013739;23;20049;-75
2023/04/05 02:24:20;;;;;;;2.13;1.17;;;1.60;99.90;;;;;;5009260;28;20069;-72
2023/04/05 02:26:47;;;;;;;9.63;2.92;;;1.60;99.90;;;;;;5008456;28;20549;-72
2023/04/05 02:29:12;;;;;;;1.92;1.73;;;1.60;99.90;;;;;;5004728;28;20034;-73
2023/04/05 02:31:38;;;;;;;2.95;1.63;;;1.60;99.90;;;;;;5007604;28;20025;-73
2023/04/05 02:34:04;;;;;;;3.08;1.60;;;1.50;99.90;;;;;;5003311;28;20033;-73
2023/04/05 02:36:30;;;;;;;7.88;2.78;;;1.50;99.90;;;;;;5003563;28;20030;-73
2023/04/05 02:38:56;;;;;;;4.40;1.40;;;1.50;99.90;;;;;;5002579;28;20405;-73
2023/04/05 02:41:22;;;;;;;1.75;1.05;;;1.40;99.90;;;;;;5007693;28;20050;-73
2023/04/05 02:43:49;;;;;;;3.40;2.38;;;1.40;99.90;;;;;;5010657;28;20022;-73
2023/04/05 02:46:15;;;;;;;6.50;2.58;;;1.50;99.90;;;;;;5008302;28;20505;-73
2023/04/05 02:48:41;;;;;;;3.75;1.73;;;1.50;99.90;;;;;;5010765;28;20059;-73
2023/04/05 02:51:06;;;;;;;3.33;1.40;;;1.50;99.90;;;;;;5007998;28;20030;-73
2023/04/05 02:53:32;;;;;;;5.60;1.70;;;1.50;99.90;;;;;;5010497;28;20026;-73
2023/04/05 02:55:58;;;;;;;3.00;1.70;;;1.50;99.90;;;;;;5008204;28;20497;-73
2023/04/05 02:58:24;;;;;;;10.02;1.60;;;1.50;99.90;;;;;;5010734;28;20040;-74
2023/04/05 03:00:53;;;;;;;6.25;1.15;;;1.60;99.90;;;;;;5007937;28;20494;-73
2023/04/05 03:03:22;;;;;;;4.82;1.60;;;1.50;99.90;;;;;;5009087;28;20061;-74
2023/04/05 03:05:58;;;;;;;4.20;1.75;;;1.50;99.90;;;;;;5004049;28;20117;-74
2023/04/05 03:08:23;;;;;;;1.92;1.33;;;1.40;99.90;;;;;;5005245;28;20029;-73
2023/04/05 03:10:52;;;;;;;2.13;1.30;;;1.20;99.90;;;;;;5011876;28;20033;-73
2023/04/05 03:13:18;;;;;;;1.80;1.27;;;1.10;99.90;;;;;;5005088;28;20022;-74
2023/04/05 03:15:44;;;;;;;2.00;1.13;;;1.10;99.90;;;;;;5011840;28;20117;-74
2023/04/05 03:18:10;;;;;;;13.32;1.38;;;1.10;99.90;;;;;;5014152;28;20026;-74
2023/04/05 03:20:39;;;;;;;2.30;1.30;;;1.10;99.90;;;;;;5011834;28;20030;-74
2023/04/05 03:23:07;;;;;;;1.60;1.02;;;1.20;99.90;;;;;;5004880;28;20065;-73
2023/04/05 03:25:35;;;;;;;2.88;2.13;;;1.20;99.90;;;;;;5009159;28;20367;-74
2023/04/05 03:28:07;;;;;;;4.78;1.88;;;1.20;99.90;;;;;;5004659;28;20509;-73
2023/04/05 03:30:34;;;;;;;2.25;1.75;;;1.30;99.90;;;;;;5011762;28;20046;-73
2023/04/05 03:33:03;;;;;;;6.05;2.22;;;1.30;99.90;;;;;;5014244;28;20036;-73
2023/04/05 03:35:29;;;;;;;5.68;2.03;;;1.30;99.90;;;;;;4993361;28;20019;-72
2023/04/05 03:37:56;;;;;;;1.63;1.20;;;1.30;99.90;;;;;;5014351;28;20030;-72
2023/04/05 03:40:23;;;;;;;1.70;1.17;;;1.40;99.90;;;;;;5010708;28;20141;-73
2023/04/05 03:42:49;;;;;;;2.15;1.13;;;1.50;99.90;;;;;;5013951;28;20041;-72
2023/04/05 03:45:15;;;;;;;6.72;3.65;;;1.50;99.90;;;;;;5010621;28;20486;-72
2023/04/05 03:47:42;;;;;;;10.93;2.05;;;1.50;99.90;;;;;;5010469;28;20038;-73
2023/04/05 03:50:08;;;;;;;3.80;1.60;;;1.50;99.90;;;;;;5013162;28;20108;-73
2023/04/05 03:52:33;;;;;;;4.82;2.22;;;1.50;99.90;;;;;;5011659;28;20033;-74
2023/04/05 03:55:00;;;;;;;4.13;1.98;;;1.50;99.90;;;;;;5013740;28;20038;-73
2023/04/05 03:57:27;;;;;;;4.03;1.65;;;1.50;99.90;;;;;;5011151;28;20029;-73
2023/04/05 03:59:53;;;;;;;7.78;2.08;;;1.30;99.90;;;;;;5013822;28;20034;-73
2023/04/05 04:02:19;;;;;;;3.25;1.13;;;1.00;99.90;;;;;;5011164;28;20037;-73
2023/04/05 04:04:45;;;;;;;2.47;1.55;;;0.90;99.90;;;;;;5011538;28;20133;-73
2023/04/05 04:07:13;;;;;;;3.80;1.52;;;0.80;99.90;;;;;;5010905;28;20029;-73
2023/04/05 04:09:39;;;;;;;2.67;1.52;;;0.70;99.90;;;;;;5013372;28;20034;-74
2023/04/05 04:12:05;;;;;;;3.38;1.67;;;0.80;99.90;;;;;;5005494;28;20034;-73
2023/04/05 04:14:31;;;;;;;3.03;1.70;;;0.80;99.90;;;;;;5011767;28;20397;-74
2023/04/05 04:16:57;;;;;;;2.08;1.27;;;0.90;99.90;;;;;;5006104;28;20494;-72
2023/04/05 04:19:23;;;;;;;11.13;1.42;;;0.90;99.90;;;;;;5012943;28;20105;-73
2023/04/05 04:21:51;;;;;;;2.67;1.40;;;1.00;99.90;;;;;;5010429;28;20030;-73
2023/04/05 04:24:18;;;;;;;2.90;1.67;;;0.90;99.90;;;;;;5013101;28;20038;-74
2023/04/05 04:26:47;;;;;;;3.05;2.10;;;0.90;99.90;;;;;;5010380;28;20065;-74
2023/04/05 04:29:15;;;;;;;4.90;1.67;;;0.80;99.90;;;;;;5003269;28;20490;-74
2023/04/05 04:31:44;;;;;;;41.67;20.27;;;0.70;99.90;;;;;;5010423;28;20072;-74
2023/04/05 04:34:12;;;;;;;18.88;6.80;;;0.70;99.90;;;;;;5012814;28;20041;-74
2023/04/05 04:36:41;;;;;;;8.77;4.55;;;0.60;99.90;;;;;;4989769;28;20030;-74
2023/04/05 04:39:09;;;;;;;3.30;1.92;;;0.70;99.90;;;;;;5006148;28;20034;-73
2023/04/05 04:41:37;;;;;;;3.15;1.58;;;0.70;99.90;;;;;;5005234;28;20495;-74
2023/04/05 04:44:04;;;;;;;3.20;1.77;;;0.60;99.90;;;;;;5012690;28;20503;-73
2023/04/05 04:46:41;;;;;;;3.70;1.70;;;0.70;99.90;;;;;;5005387;28;20187;-73
2023/04/05 04:49:08;;;;;;;5.28;2.25;;;0.70;99.90;;;;;;5005833;28;20034;-73
2023/04/05 04:51:36;;;;;;;3.13;2.10;;;0.50;99.90;;;;;;5005471;28;20031;-73
2023/04/05 04:54:02;;;;;;;3.63;1.50;;;0.40;99.90;;;;;;5007032;28;20030;-73
2023/04/05 04:56:28;;;;;;;3.67;1.95;;;0.40;99.90;;;;;;5009999;28;20446;-73
2023/04/05 04:58:57;;;;;;;4.57;2.13;;;0.40;99.90;;;;;;4987778;28;20033;-74
2023/04/05 05:01:23;;;;;;;3.40;2.22;;;0.40;99.90;;;;;;5007860;28;20092;-72
2023/04/05 05:03:50;;;;;;;1.88;1.65;;;0.40;99.90;;;;;;5001988;28;20046;-72
2023/04/05 05:06:18;;;;;;;4.97;2.10;;;0.50;99.90;;;;;;5008744;28;20067;-73
2023/04/05 05:08:46;;;;;;;3.15;1.65;;;0.50;99.90;;;;;;4975261;28;20044;-74
2023/04/05 05:11:12;;;;;;;1.85;1.23;;;0.60;99.90;;;;;;4990835;28;20442;-74
2023/04/05 05:13:37;;;;;;;5.00;2.50;;;0.60;99.90;;;;;;5001290;28;20105;-74
2023/04/05 05:16:04;;;;;;;7.90;2.72;;;0.70;99.90;;;;;;5007445;28;20109;-74
2023/04/05 05:18:30;;;;;;;5.80;1.80;;;0.80;99.90;;;;;;5012016;28;20388;-75
2023/04/05 05:20:56;;;;;;;6.55;1.67;;;0.70;99.90;;;;;;4998186;28;20040;-75
2023/04/05 05:23:21;;;;;;;1.90;1.63;;;0.70;99.90;;;;;;5003769;28;20117;-74
2023/04/05 05:25:47;;;;;;;5.50;2.05;;;0.80;99.90;;;;;;5008118;28;20026;-73
2023/04/05 05:28:13;;;;;;;6.57;2.15;;;0.80;99.90;;;;;;5011227;28;20409;-74
2023/04/05 05:30:39;;;;;;;3.45;1.45;;;0.70;99.90;;;;;;5000023;28;20031;-74
2023/04/05 05:33:05;;;;;;;6.70;1.60;;;0.80;99.90;;;;;;5006159;28;20092;-73
2023/04/05 05:35:33;;;;;;;21.65;2.85;;;0.80;99.90;;;;;;5007793;28;20105;-73
2023/04/05 05:38:00;;;;;;;5.28;2.20;;;0.70;99.90;;;;;;5011720;28;20030;-74
2023/04/05 05:40:26;;;;;;;2.97;1.63;;;0.60;99.90;;;;;;5007691;28;20091;-74
2023/04/05 05:42:51;;;;;;;6.63;2.88;;;0.60;99.90;;;;;;4994250;28;20449;-72
2023/04/05 05:45:17;;;;;;;5.60;2.88;;;0.70;99.90;;;;;;5017011;28;20109;-73
2023/04/05 05:47:43;;;;;;;4.80;2.42;;;0.80;99.90;;;;;;5011361;28;20034;-75
2023/04/05 05:50:09;;;;;;;7.15;2.25;;;1.00;99.90;;;;;;4995168;28;20538;-75
2023/04/05 05:52:35;;;;;;;3.88;2.88;;;1.00;99.90;;;;;;5009727;28;20030;-76
2023/04/05 05:55:01;;;;;;;1.95;1.60;;;1.00;99.90;;;;;;5010248;28;20033;-75
2023/04/05 05:57:27;;;;;;;6.28;2.58;;;1.10;99.90;;;;;;4993153;28;20088;-75
2023/04/05 05:59:53;;;;;;;2.55;1.83;;;1.30;99.90;;;;;;5003083;28;20025;-74
2023/04/05 06:02:18;;;;;;;4.00;1.90;;;1.30;99.90;;;;;;5005833;28;20026;-74
2023/04/05 06:04:44;;;;;;;1.15;1.05;;;1.30;99.90;;;;;;5010933;28;20030;-76
2023/04/05 06:07:11;;;;;;;2.90;1.65;;;1.30;99.90;;;;;;5007917;28;20097;-74
2023/04/05 06:09:37;;;;;;;3.75;2.10;;;1.30;99.90;;;;;;5010169;28;20516;-75
2023/04/05 06:12:06;;;;;;;3.35;1.75;;;1.30;99.90;;;;;;4997843;28;20060;-74
2023/04/05 06:14:32;;;;;;;2.72;1.70;;;1.40;99.90;;;;;;5010346;28;20029;-75
2023/04/05 06:16:57;;;;;;;3.90;2.45;;;1.50;99.90;;;;;;4990912;28;20028;-72
2023/04/05 06:19:23;;;;;;;2.95;1.98;;;1.60;99.90;;;;;;5010890;28;20029;-74
2023/04/05 06:21:49;;;;;;;4.10;2.67;;;1.60;99.90;;;;;;5006771;28;20578;-75
2023/04/05 06:24:15;;;;;;;3.72;2.08;;;1.70;99.90;;;;;;5004472;28;20053;-72
2023/04/05 06:26:41;;;;;;;6.68;1.95;;;1.70;99.90;;;;;;5006963;28;20117;-73
2023/04/05 06:29:06;;;;;;;3.10;1.92;;;1.80;99.90;;;;;;5010480;28;20148;-72
2023/04/05 06:31:34;;;;;;;1.45;1.08;;;1.80;99.90;;;;;;5008801;28;20025;-73
2023/04/05 06:34:01;;;;;;;2.95;1.13;;;1.90;99.90;;;;;;4974416;28;20037;-73
2023/04/05 06:36:33;;;;;;;5.10;1.75;;;1.90;99.90;;;;;;4995951;28;20041;-73
2023/04/05 06:38:59;;;;;;;9.07;1.95;;;2.00;99.90;;;;;;4994235;28;20103;-72
2023/04/05 06:41:26;;;;;;;4.28;2.05;;;2.10;99.90;;;;;;4994131;28;20116;-72
2023/04/05 06:43:52;;;;;;;3.45;1.67;;;2.20;99.90;;;;;;4992814;28;20030;-72
2023/04/05 06:46:17;;;;;;;3.58;2.33;;;2.20;99.90;;;;;;5005595;28;20048;-73
2023/04/05 06:48:43;;;;;;;7.72;1.40;;;2.30;99.90;;;;;;4999708;28;20031;-72
2023/04/05 06:51:09;;;;;;;3.10;1.63;;;2.30;99.90;;;;;;5002004;28;20042;-72
2023/04/05 06:53:35;;;;;;;3.63;1.42;;;2.40;99.90;;;;;;5010204;28;20032;-73
2023/04/05 06:56:01;;;;;;;2.65;1.92;;;2.30;99.90;;;;;;5006319;28;20026;-73
2023/04/05 06:58:27;;;;;;;4.50;1.50;;;2.40;99.90;;;;;;4992177;28;20029;-73
2023/04/05 07:00:53;;;;;;;1.88;1.27;;;2.60;99.90;;;;;;5008411;28;20088;-73
2023/04/05 07:03:19;;;;;;;5.10;1.40;;;2.60;99.90;;;;;;5010172;28;20076;-72
2023/04/05 07:05:55;;;;;;;2.22;1.52;;;2.70;99.90;;;;;;4998437;28;20045;-73
2023/04/05 07:08:22;;;;;;;5.90;1.63;;;2.70;99.90;;;;;;5005371;28;20068;-71
2023/04/05 07:10:49;;;;;;;2.92;1.30;;;2.80;99.90;;;;;;5006079;28;20080;-71
2023/04/05 07:13:16;;;;;;;5.55;1.92;;;2.90;99.90;;;;;;4992378;28;20112;-72
2023/04/05 07:15:43;;;;;;;1.95;1.60;;;3.00;99.90;;;;;;4996556;28;20037;-72
2023/04/05 07:18:09;;;;;;;4.57;2.20;;;3.00;99.90;;;;;;4992596;28;20037;-72
2023/04/05 07:20:35;;;;;;;3.65;2.33;;;3.10;99.90;;;;;;5000028;28;20035;-73
2023/04/05 07:23:01;;;;;;;2.78;1.25;;;3.30;99.90;;;;;;5010024;28;20521;-73
2023/04/05 07:25:27;;;;;;;3.35;1.80;;;3.40;99.90;;;;;;5006225;28;20136;-73
2023/04/05 07:27:52;;;;;;;3.35;1.45;;;3.40;99.90;;;;;;5009760;28;20027;-73
2023/04/05 07:30:19;;;;;;;1.50;1.08;;;3.40;99.90;;;;;;5006741;28;20060;-73
2023/04/05 07:32:45;;;;;;;2.85;1.55;;;3.50;99.90;;;;;;5011596;28;20080;-69
2023/04/05 07:35:10;;;;;;;5.20;2.15;;;3.60;99.90;;;;;;5007950;28;20026;-69
2023/04/05 07:37:37;;;;;;;3.00;1.23;;;3.70;99.90;;;;;;5008128;28;20022;-69
2023/04/05 07:40:04;;;;;;;4.70;1.73;;;3.80;99.90;;;;;;4999514;28;20018;-68
2023/04/05 07:42:30;;;;;;;4.32;1.73;;;3.90;99.90;;;;;;5007143;28;20061;-70
2023/04/05 07:44:57;;;;;;;1.63;1.20;;;3.90;99.90;;;;;;4983483;28;20062;-69
2023/04/05 07:47:22;;;;;;;2.13;1.17;;;4.10;99.90;;;;;;5006529;28;20029;-69
2023/04/05 07:49:48;;;;;;;7.65;1.38;;;4.20;99.90;;;;;;5009788;28;20022;-70
2023/04/05 07:52:14;;;;;;;2.65;1.85;;;4.30;99.90;;;;;;5006217;28;20251;-69
2023/04/05 07:54:42;;;;;;;5.78;2.28;;;4.20;99.90;;;;;;5010290;28;20037;-68
2023/04/05 07:57:09;;;;;;;1.98;1.13;;;4.30;99.90;;;;;;5009115;28;20030;-68
2023/04/05 07:59:35;;;;;;;3.30;1.67;;;4.30;99.90;;;;;;5013289;28;20068;-69
2023/04/05 08:02:02;;;;;;;2.10;1.63;;;4.30;99.50;;;;;;5011728;28;20690;-68
2023/04/05 08:04:27;;;;;;;5.25;1.77;;;4.40;99.50;;;;;;5009096;28;20018;-70
2023/04/05 08:06:53;;;;;;;2.47;1.08;;;4.50;99.30;;;;;;4996291;28;20410;-70
2023/04/05 08:09:19;;;;;;;8.82;2.00;;;4.70;99.00;;;;;;5013271;28;20505;-68
2023/04/05 08:11:45;;;;;;;2.72;1.08;;;4.60;98.20;;;;;;5009281;28;20034;-68
2023/04/05 08:14:10;;;;;;;4.47;1.23;;;4.70;98.50;;;;;;5012894;28;20029;-69
2023/04/05 08:16:36;;;;;;;3.25;1.50;;;5.00;97.80;;;;;;5008931;28;20022;-68
2023/04/05 08:19:02;;;;;;;2.55;1.50;;;4.90;97.60;;;;;;5013322;28;20054;-68
2023/04/05 08:21:28;;;;;;;4.20;1.25;;;5.10;97.80;;;;;;5009336;28;20513;-70
2023/04/05 08:23:53;;;;;;;5.30;1.60;;;5.20;97.40;;;;;;5012716;28;20026;-70
2023/04/05 08:26:19;;;;;;;2.25;0.90;;;5.40;97.00;;;;;;5009059;28;20037;-70
2023/04/05 08:28:45;;;;;;;1.08;0.80;;;5.40;97.10;;;;;;5012611;28;20440;-69
2023/04/05 08:31:11;;;;;;;2.78;1.42;;;5.50;97.60;;;;;;5011439;28;20029;-68
2023/04/05 08:33:36;;;;;;;5.10;1.42;;;5.80;96.70;;;;;;5012510;28;20022;-69
2023/04/05 08:36:07;;;;;;;2.05;1.33;;;5.80;96.50;;;;;;5018915;23;20852;-73
2023/04/05 08:38:33;;;;;;;3.63;1.80;;;5.80;96.30;;;;;;5011531;28;20038;-74
2023/04/05 08:41:22;;;;;;;7.00;2.47;;;5.90;96.10;;;;;;5009083;28;20667;-74
2023/04/05 08:44:06;;;;;;;13.25;1.35;;;6.00;95.50;;;;;;5016950;28;20109;-74
2023/04/05 08:46:34;;;;;;;4.50;1.20;;;5.90;95.40;;;;;;4990238;28;20510;-74
2023/04/05 08:49:06;;;;;;;3.28;1.77;;;6.10;95.20;;;;;;5008364;28;20042;-74
2023/04/05 08:51:32;;;;;;;2.65;1.45;;;6.40;95.10;;;;;;4991900;28;20026;-73
2023/04/05 08:53:58;;;;;;;1.80;1.40;;;6.50;94.50;;;;;;5002684;28;20026;-73
2023/04/05 08:56:29;;;;;;;10.10;1.50;;;6.70;94.70;;;;;;5006491;28;20036;-73
2023/04/05 08:59:08;;;;;;;3.30;1.73;;;6.80;94.50;;;;;;5012549;28;20036;-73
2023/04/05 09:01:42;;;;;;;1.85;1.08;;;6.70;94.20;;;;;;4988561;28;20398;-72
2023/04/05 09:04:26;;;;;;;3.20;1.52;;;6.70;94.40;;;;;;5002452;28;20014;-73
2023/04/05 09:06:54;;;;;;;2.53;1.83;;;6.90;94.60;;;;;;5002154;28;20029;-73
2023/04/05 09:09:21;;;;;;;2.00;1.50;;;7.10;93.80;;;;;;4998365;28;20048;-73
2023/04/05 09:11:48;;;;;;;4.75;1.25;;;7.10;93.60;;;;;;4999110;28;20026;-73
2023/04/05 09:14:15;;;;;;;3.08;1.35;;;7.30;92.80;;;;;;5002512;28;20026;-73
2023/04/05 09:16:41;;;;;;;5.00;2.80;;;7.30;92.80;;;;;;4999145;28;20744;-73
2023/04/05 09:19:08;;;;;;;3.42;1.63;;;7.20;92.50;;;;;;5011973;28;20034;-73
2023/04/05 09:21:59;;;;;;;6.70;1.38;;;7.10;92.40;;;;;;4972297;28;20524;-73
2023/04/05 09:24:42;;;;;;;4.05;1.58;;;7.10;93.20;;;;;;5011855;28;20040;-73
2023/04/05 09:27:16;;;;;;;2.45;1.33;;;7.10;92.70;;;;;;5005885;28;20034;-73
2023/04/05 09:29:47;;;;;;;5.50;1.73;;;7.20;93.20;;;;;;5002041;28;20409;-73
2023/04/05 09:32:17;;;;;;;1.73;1.05;;;7.30;92.70;;;;;;4997959;28;20033;-73
2023/04/05 09:34:43;;;;;;;2.35;1.50;;;7.30;93.50;;;;;;5002249;28;20077;-73
2023/04/05 09:37:19;;;;;;;3.78;2.15;;;7.50;92.80;;;;;;5005661;28;20029;-72
2023/04/05 09:39:50;;;;;;;2.35;1.30;;;7.70;91.10;;;;;;5002022;28;20034;-73
2023/04/05 09:42:18;;;;;;;;;;;7.80;88.80;;;;;;5005987;28;20040;-73
2023/04/05 09:45:05;;;;;;;3.45;1.88;;;7.70;88.30;;;;;;5009751;28;19913;-73
2023/04/05 09:47:35;;;;;;;8.98;1.70;;;8.00;89.40;;;;;;4998410;28;20120;-73
2023/04/05 09:50:16;;;;;;;2.38;1.38;;;8.10;86.70;;;;;;5002471;28;20025;-71
2023/04/05 09:52:42;;;;;;;;;;;8.20;85.40;;;;;;5009842;28;20038;-81
2023/04/05 09:55:09;;;;;;;3.45;1.60;;;8.40;84.90;;;;;;4999314;28;19909;-71
2023/04/05 09:57:41;;;;;;;3.83;2.13;;;8.40;86.30;;;;;;5009530;28;20080;-70
2023/04/05 10:00:18;;;;;;;2.97;2.05;;;8.20;88.20;;;;;;5010946;28;20041;-69
2023/04/05 10:02:46;;;;;;;4.97;1.73;;;8.50;85.70;;;;;;5005282;28;20049;-72
2023/04/05 10:05:12;;;;;;;4.68;1.70;;;8.70;85.30;;;;;;5011177;28;20060;-73
2023/04/05 10:07:42;;;;;;;7.13;1.60;;;8.70;84.20;;;;;;5004987;28;20080;-71
2023/04/05 10:10:12;;;;;;;4.63;2.38;;;8.70;83.90;;;;;;5004266;28;20386;-72
2023/04/05 10:12:40;;;;;;;3.50;1.45;;;8.80;83.00;;;;;;5008535;28;20029;-75
2023/04/05 10:15:07;;;;;;;4.25;2.47;;;9.10;87.10;;;;;;5010153;28;20022;-73
2023/04/05 10:17:38;;;;;;;2.85;1.50;;;8.90;87.60;;;;;;4997388;28;20037;-72
2023/04/05 10:20:16;;;;;;;7.07;2.90;;;9.00;85.60;;;;;;5004181;28;20080;-73
2023/04/05 10:22:54;;;;;;;3.72;1.70;;;9.00;84.70;;;;;;5004139;28;20188;-72
2023/04/05 10:25:52;;;;;;;4.45;1.90;;;9.00;84.20;;;;;;5006397;28;20053;-69
2023/04/05 10:28:36;;;;;;;8.48;1.90;;;9.40;84.50;;;;;;5007378;28;20068;-73
2023/04/05 10:31:26;;;;;;;2.10;1.40;;;9.30;86.10;;;;;;4990911;28;20046;-73
2023/04/05 10:34:05;;;;;;;2.15;1.67;;;9.40;82.20;;;;;;5002639;28;20018;-74
2023/04/05 10:36:52;;;;;;;4.88;1.67;;;9.60;80.90;;;;;;5006491;28;20022;-73
2023/04/05 10:39:26;;;;;;;4.22;1.98;;;9.80;80.50;;;;;;5012095;28;20133;-73
2023/04/05 10:42:08;;;;;;;3.50;1.33;;;9.90;78.90;;;;;;4989712;28;20067;-74
2023/04/05 10:44:36;;;;;;;6.57;2.03;;;9.60;80.10;;;;;;4998707;28;20041;-75
2023/04/05 10:47:04;;;;;;;5.00;1.67;;;9.70;81.30;;;;;;4985939;28;20129;-73
2023/04/05 10:49:39;;;;;;;4.15;1.80;;;9.90;80.40;;;;;;5001122;28;20030;-74
2023/04/05 10:52:05;;;;;;;3.42;1.63;;;9.30;80.90;;;;;;5007181;28;20032;-73
2023/04/05 10:54:35;;;;;;;4.35;1.60;;;9.40;81.10;;;;;;5010049;28;20026;-73
2023/04/05 10:57:08;;;;;;;4.53;1.92;;;9.90;83.30;;;;;;5006768;28;20076;-75
2023/04/05 10:59:39;;;;;;;2.90;1.88;;;10.00;79.00;;;;;;4992460;28;20461;-72
2023/04/05 11:02:05;;;;;;;4.35;1.83;;;10.50;80.30;;;;;;5007441;28;20026;-72
2023/04/05 11:04:33;;;;;;;4.07;2.22;;;10.60;79.70;;;;;;5010008;28;20040;-73
2023/04/05 11:07:18;;;;;;;2.40;1.40;;;10.70;77.10;;;;;;5006881;28;20347;-73
2023/04/05 11:10:04;;;;;;;3.47;1.75;;;10.40;81.20;;;;;;5000719;28;20037;-72
2023/04/05 11:12:45;;;;;;;8.90;2.53;;;10.60;80.20;;;;;;5001497;28;20033;-72
2023/04/05 11:15:30;;;;;;;3.10;1.67;;;10.50;80.20;;;;;;5006309;28;20185;-72
2023/04/05 11:18:23;;;;;;;6.03;1.80;;;10.50;80.80;;;;;;5004291;28;20038;-73
2023/04/05 11:20:56;;;;;;;4.18;1.83;;;10.70;80.70;;;;;;4996677;28;20401;-74
2023/04/05 11:23:23;;;;;;;5.30;1.70;;;11.00;80.30;;;;;;5003039;28;20026;-76
2023/04/05 11:25:54;;;;;;;3.58;1.40;;;11.20;80.90;;;;;;4992863;28;20425;-73
2023/04/05 11:28:36;;;;;;;2.45;1.48;;;11.20;76.10;;;;;;5009734;28;20675;-74
2023/04/05 11:31:19;;;;;;;4.05;1.95;;;12.00;73.30;;;;;;4995760;28;20029;-72
2023/04/05 11:33:45;;;;;;;4.32;1.92;;;11.30;74.20;;;;;;4995491;28;20622;-73
2023/04/05 11:36:11;;;;;;;3.78;2.03;;;11.10;77.00;;;;;;5012039;28;20040;-72
2023/04/05 11:38:39;;;;;;;2.60;1.38;;;11.30;77.70;;;;;;5012308;28;20032;-72
2023/04/05 11:41:17;;;;;;;2.95;1.75;;;11.50;77.40;;;;;;5011436;28;20393;-70
2023/04/05 11:43:46;;;;;;;4.82;1.95;;;11.80;78.50;;;;;;5010269;28;20041;-73
2023/04/05 11:46:14;;;;;;;7.82;2.40;;;11.90;75.10;;;;;;5011815;28;20036;-73
2023/04/05 11:48:41;;;;;;;2.13;1.40;;;11.90;72.20;;;;;;5023535;28;20045;-72
2023/04/05 11:51:09;;;;;;;6.05;1.50;;;11.30;72.40;;;;;;5013225;28;20030;-73
2023/04/05 11:53:36;;;;;;;4.00;1.95;;;11.70;73.60;;;;;;5008384;28;20498;-73
2023/04/05 11:56:09;;;;;;;3.65;1.85;;;12.60;72.50;;;;;;4995464;28;20478;-73
2023/04/05 11:58:36;;;;;;;4.68;1.48;;;11.70;71.70;;;;;;4991782;28;20517;-73
2023/04/05 12:01:06;;;;;;;2.05;1.42;;;12.00;74.10;;;;;;5011980;28;20030;-72
2023/04/05 12:03:33;;;;;;;2.95;1.60;;;11.90;74.30;;;;;;5010553;28;20400;-73
2023/04/05 12:06:02;;;;;;;6.22;2.28;;;12.10;73.70;;;;;;5012187;28;20048;-72
2023/04/05 12:08:56;;;;;;;4.95;1.90;;;12.00;72.90;;;;;;5010296;28;20038;-73
2023/04/05 12:11:32;;;;;;;4.15;1.90;;;12.10;71.80;;;;;;5010009;28;20100;-72
2023/04/05 12:14:00;;;;;;;3.53;1.50;;;11.80;73.20;;;;;;5005851;28;20036;-74
2023/04/05 12:16:27;;;;;;;2.20;1.30;;;12.50;72.60;;;;;;5009966;28;20572;-73
2023/04/05 12:18:58;;;;;;;2.72;1.70;;;12.80;70.40;;;;;;5013199;28;20052;-72
2023/04/05 12:21:25;;;;;;;;;;;12.10;72.10;;;;;;5010280;28;20784;-71
2023/04/05 12:23:52;;;;;;;9.00;2.28;;;13.40;70.10;;;;;;5004992;28;19913;-71
2023/04/05 12:26:18;;;;;;;4.63;1.83;;;13.30;69.60;;;;;;4993368;28;20041;-72
2023/04/05 12:28:55;;;;;;;4.10;1.67;;;13.20;67.80;;;;;;5011901;28;20788;-72
2023/04/05 12:31:44;;;;;;;2.67;1.60;;;13.50;70.10;;;;;;5010340;28;20100;-71
2023/04/05 12:34:13;;;;;;;2.40;1.50;;;13.40;73.80;;;;;;5001372;28;20037;-73
2023/04/05 12:36:45;;;;;;;5.95;1.98;;;15.30;65.80;;;;;;5003030;28;20536;-72
2023/04/05 12:39:10;;;;;;;3.45;1.42;;;13.90;65.20;;;;;;5007745;28;20040;-71
2023/04/05 12:41:36;;;;;;;3.90;1.65;;;13.80;68.70;;;;;;5010753;28;20022;-72
2023/04/05 12:44:14;;;;;;;3.03;1.77;;;14.10;65.70;;;;;;5005089;28;20030;-71
2023/04/05 12:46:47;;;;;;;4.57;2.33;;;15.00;66.80;;;;;;4986872;28;20100;-74
2023/04/05 12:49:17;;;;;;;3.72;2.00;;;15.60;64.60;;;;;;4995284;28;20080;-72
2023/04/05 12:51:46;;;;;;;4.90;2.40;;;16.00;60.20;;;;;;5012253;28;20096;-72
2023/04/05 12:54:21;;;;;;;3.45;1.50;;;15.30;62.10;;;;;;5007095;28;20034;-72
2023/04/05 12:56:53;;;;;;;3.00;1.58;;;14.20;62.90;;;;;;5002707;28;20128;-72
2023/04/05 12:59:20;;;;;;;3.67;1.65;;;15.40;62.00;;;;;;5007658;28;20405;-72
2023/04/05 13:01:46;;;;;;;3.53;1.83;;;15.00;60.50;;;;;;5011360;28;20029;-72
2023/04/05 13:04:11;;;;;;;4.45;1.80;;;14.40;62.20;;;;;;4986166;28;20026;-72
2023/04/05 13:06:37;;;;;;;4.20;1.60;;;14.00;62.00;;;;;;4996937;28;20360;-73